Time;durP1;ratioP1;P1;durP2;ratioP2;P2;SDS_P1;SDS_P2;PMS_P1;PMS_P2;Temp;Humidity;BMP_temperature;BMP_pressure;BME280_temperature;BME280_humidity;BME280_pressure;Samples;Min_cycle;Max_cycle;Signal;HPM_P1;HPM_P2
2023/12/19 00:00:17;;;;;;;5.30;4.60;;;;;;;8.32;82.73;101297.34;104966;1255;67239;-65
2023/12/19 00:03:04;;;;;;;3.80;3.50;;;;;;;8.28;82.69;101304.34;108954;1256;138317;-67
2023/12/19 00:05:31;;;;;;;5.50;4.00;;;;;;;8.27;82.83;101297.99;109018;1256;60621;-66
2023/12/19 00:07:57;;;;;;;2.60;2.40;;;;;;;8.28;82.87;101291.39;109079;1254;61624;-66
2023/12/19 00:10:24;;;;;;;3.30;3.00;;;;;;;8.29;82.80;101294.79;108927;1255;138760;-66
2023/12/19 00:12:51;;;;;;;3.50;3.20;;;;;;;8.31;82.72;101286.97;109098;1255;67251;-65
2023/12/19 00:15:22;;;;;;;3.40;2.70;;;;;;;8.33;82.76;101280.73;107215;1256;138493;-66
2023/12/19 00:17:49;;;;;;;3.30;3.00;;;;;;;8.34;82.84;101273.67;109084;1254;59732;-67
2023/12/19 00:20:16;;;;;;;2.30;2.10;;;;;;;8.35;82.80;101261.81;109072;1255;59981;-66
2023/12/19 00:22:42;;;;;;;2.30;1.90;;;;;;;8.36;82.76;101260.61;105863;1256;138419;-67
2023/12/19 00:25:09;;;;;;;2.60;2.10;;;;;;;8.35;82.67;101257.95;104901;1261;66586;-67
2023/12/19 00:27:36;;;;;;;2.50;2.30;;;;;;;8.33;82.71;101258.77;104777;1258;138794;-67
2023/12/19 00:30:03;;;;;;;3.00;2.70;;;;;;;8.34;82.88;101261.23;104842;1260;61821;-67
2023/12/19 00:32:32;;;;;;;3.00;1.60;;;;;;;8.34;82.82;101249.16;109039;1255;61308;-68
2023/12/19 00:34:58;;;;;;;2.00;1.80;;;;;;;8.30;82.73;101242.88;108945;1254;138420;-68
2023/12/19 00:37:25;;;;;;;1.60;1.40;;;;;;;8.27;82.73;101239.58;109051;1255;67602;-68
2023/12/19 00:39:52;;;;;;;1.90;1.60;;;;;;;8.23;82.62;101226.13;108950;1256;139056;-68
2023/12/19 00:42:19;;;;;;;2.30;1.80;;;;;;;8.20;82.65;101222.70;108990;1255;59914;-68
2023/12/19 00:44:45;;;;;;;3.60;2.20;;;;;;;8.17;82.71;101220.29;109045;1255;60308;-66
2023/12/19 00:47:12;;;;;;;2.90;2.00;;;;;;;8.16;82.75;101221.15;108950;1256;138241;-66
2023/12/19 00:49:39;;;;;;;2.30;2.10;;;;;;;8.17;82.85;101224.86;109027;1255;66470;-67
2023/12/19 00:52:06;;;;;;;1.50;1.30;;;;;;;8.18;82.91;101223.33;108829;1254;138874;-68
2023/12/19 00:54:32;;;;;;;1.70;1.60;;;;;;;8.20;82.90;101232.13;109084;1258;60829;-66
2023/12/19 00:56:59;;;;;;;1.60;1.30;;;;;;;8.22;82.93;101235.70;109082;1256;60382;-67
2023/12/19 00:59:26;;;;;;;1.50;1.40;;;;;;;8.24;82.95;101232.30;108999;1256;138359;-67
2023/12/19 01:01:53;;;;;;;1.50;1.40;;;;;;;8.26;82.96;101232.88;109102;1255;66558;-66
2023/12/19 01:04:19;;;;;;;1.50;1.30;;;;;;;8.26;82.89;101234.11;108192;1259;139214;-66
2023/12/19 01:06:46;;;;;;;2.60;1.30;;;;;;;8.25;82.89;101232.00;104817;1259;61244;-65
2023/12/19 01:09:13;;;;;;;2.50;1.40;;;;;;;8.26;82.87;101228.35;104806;1256;138499;-66
2023/12/19 01:11:40;;;;;;;1.50;1.20;;;;;;;8.27;82.96;101225.80;104949;1260;75475;-67
2023/12/19 01:14:07;;;;;;;1.40;1.30;;;;;;;8.28;82.97;101221.46;104802;1256;67626;-68
2023/12/19 01:16:33;;;;;;;1.30;1.20;;;;;;;8.28;83.02;101220.95;104683;1260;138301;-67
2023/12/19 01:19:02;;;;;;;1.40;1.30;;;;;;;8.29;82.94;101223.59;104877;1256;61514;-67
2023/12/19 01:21:29;;;;;;;1.40;1.30;;;;;;;8.27;82.98;101224.05;108934;1256;138875;-67
2023/12/19 01:23:55;;;;;;;1.50;1.30;;;;;;;8.27;82.91;101212.30;106176;1259;75875;-66
2023/12/19 01:26:22;;;;;;;1.10;1.00;;;;;;;8.26;82.94;101210.20;104817;1256;67841;-66
2023/12/19 01:28:49;;;;;;;2.90;1.40;;;;;;;8.26;82.86;101208.94;104732;1256;138774;-66
2023/12/19 01:31:15;;;;;;;10.10;5.10;;;;;;;8.26;82.95;101203.34;104935;1256;61355;-67
2023/12/19 01:33:42;;;;;;;35.20;24.40;;;;;;;8.25;82.97;101192.14;104918;1260;138800;-67
2023/12/19 01:36:10;;;;;;;23.40;16.10;;;;;;;8.25;82.96;101186.71;104962;1256;74857;-67
2023/12/19 01:38:37;;;;;;;16.90;13.60;;;;;;;8.23;82.96;101182.45;104984;1256;66915;-67
2023/12/19 01:41:03;;;;;;;10.00;8.20;;;;;;;8.20;82.95;101191.73;104871;1256;138816;-67
2023/12/19 01:43:30;;;;;;;12.80;10.70;;;;;;;8.19;83.02;101197.31;104936;1261;61323;-66
2023/12/19 01:45:57;;;;;;;19.10;13.80;;;;;;;8.20;83.18;101187.71;104768;1257;138689;-67
2023/12/19 01:48:24;;;;;;;43.10;26.70;;;;;;;8.19;83.12;101192.23;104884;1259;75739;-64
2023/12/19 01:50:51;;;;;;;45.40;29.20;;;;;;;8.20;83.26;101193.14;108761;1261;66717;-68
2023/12/19 01:53:18;;;;;;;17.20;12.50;;;;;;;8.21;83.18;101186.19;108953;1254;138654;-69
2023/12/19 01:55:45;;;;;;;16.70;11.80;;;;;;;8.20;83.12;101191.23;108998;1256;60405;-67
2023/12/19 01:58:12;;;;;;;21.50;15.20;;;;;;;8.21;83.15;101188.13;108755;1254;139750;-68
2023/12/19 02:00:38;;;;;;;25.50;17.70;;;;;;;8.23;83.16;101187.52;108916;1256;78238;-69
2023/12/19 02:03:05;;;;;;;29.10;16.20;;;;;;;8.25;83.17;101184.45;108891;1257;139104;-69
2023/12/19 02:05:32;;;;;;;37.30;23.30;;;;;;;8.28;83.14;101194.35;108965;1255;71161;-69
2023/12/19 02:07:59;;;;;;;31.60;18.40;;;;;;;8.28;83.10;101194.38;108984;1256;59123;-69
2023/12/19 02:10:27;;;;;;;21.70;13.40;;;;;;;8.29;83.19;101174.98;106528;1258;139146;-68
2023/12/19 02:12:53;;;;;;;14.60;10.40;;;;;;;8.29;83.17;101159.45;104835;1260;75955;-67
2023/12/19 02:15:20;;;;;;;15.40;10.20;;;;;;;8.30;83.27;101153.54;104920;1256;138678;-67
2023/12/19 02:17:47;;;;;;;21.30;14.30;;;;;;;8.29;83.26;101148.23;104879;1259;72485;-67
2023/12/19 02:20:14;;;;;;;37.20;24.90;;;;;;;8.29;83.34;101155.74;105069;1256;61363;-68
2023/12/19 02:22:41;;;;;;;24.60;15.90;;;;;;;8.28;83.41;101156.43;108912;1256;139758;-68
2023/12/19 02:25:08;;;;;;;20.90;14.60;;;;;;;8.29;83.46;101149.27;109065;1256;74443;-68
2023/12/19 02:27:39;;;;;;;25.60;16.80;;;;;;;8.28;83.35;101141.72;108972;1256;139157;-66
2023/12/19 02:30:07;;;;;;;20.50;13.70;;;;;;;8.25;83.35;101141.58;108716;1256;73952;-65
2023/12/19 02:32:34;;;;;;;23.30;14.80;;;;;;;8.23;83.35;101148.70;105076;1260;61262;-68
2023/12/19 02:35:01;;;;;;;27.90;17.40;;;;;;;8.24;83.40;101145.04;104817;1258;138642;-67
2023/12/19 02:37:28;;;;;;;29.30;18.90;;;;;;;8.24;83.45;101147.01;104911;1256;73581;-69
2023/12/19 02:39:57;;;;;;;33.30;21.80;;;;;;;8.24;83.45;101141.38;104821;1259;138904;-68
2023/12/19 02:42:24;;;;;;;31.80;20.20;;;;;;;8.24;83.44;101142.09;104922;1256;73001;-68
2023/12/19 02:44:51;;;;;;;41.40;27.20;;;;;;;8.25;83.59;101128.30;104816;1261;61365;-68
2023/12/19 02:47:17;;;;;;;25.30;17.60;;;;;;;8.27;83.67;101121.58;104695;1256;139207;-68
2023/12/19 02:49:44;;;;;;;27.60;17.10;;;;;;;8.27;83.53;101105.67;104827;1258;73920;-68
2023/12/19 02:52:11;;;;;;;33.90;22.60;;;;;;;8.26;83.64;101087.10;104744;1260;138696;-68
2023/12/19 02:54:38;;;;;;;16.20;12.00;;;;;;;8.25;83.46;101085.66;105037;1256;73736;-67
2023/12/19 02:57:05;;;;;;;12.70;9.10;;;;;;;8.23;83.59;101088.23;104786;1255;138815;-68
2023/12/19 02:59:31;;;;;;;16.50;12.60;;;;;;;8.21;83.60;101096.17;104850;1261;61357;-66
2023/12/19 03:01:58;;;;;;;6.90;5.20;;;;;;;8.21;83.66;101091.81;104854;1256;75668;-67
2023/12/19 03:04:25;;;;;;;7.20;5.80;;;;;;;8.22;83.61;101082.55;104792;1261;138242;-67
2023/12/19 03:06:53;;;;;;;7.60;5.70;;;;;;;8.20;83.69;101075.66;104795;1256;71997;-67
2023/12/19 03:09:20;;;;;;;9.10;6.70;;;;;;;8.19;83.75;101076.86;104837;1256;138494;-67
2023/12/19 03:12:05;;;;;;;7.40;6.70;;;;;;;8.21;83.84;101070.10;104983;1256;61667;-68
2023/12/19 03:14:33;;;;;;;5.20;4.70;;;;;;;8.18;83.72;101061.45;109008;1256;76276;-69
2023/12/19 03:17:01;;;;;;;5.20;4.30;;;;;;;8.16;83.75;101051.23;108904;1256;138904;-66
2023/12/19 03:19:28;;;;;;;4.70;4.20;;;;;;;8.13;83.70;101048.66;109024;1254;73674;-64
2023/12/19 03:21:54;;;;;;;3.00;2.70;;;;;;;8.09;83.62;101045.02;105302;1256;138585;-66
2023/12/19 03:24:22;;;;;;;3.50;2.70;;;;;;;8.04;83.57;101043.41;104921;1259;61397;-67
2023/12/19 03:26:49;;;;;;;3.00;2.70;;;;;;;8.00;83.65;101044.44;108950;1255;75341;-66
2023/12/19 03:29:16;;;;;;;5.70;5.10;;;;;;;7.99;83.88;101053.35;104714;1262;138529;-66
2023/12/19 03:31:42;;;;;;;4.50;4.10;;;;;;;8.00;83.88;101048.98;104818;1259;73294;-65
2023/12/19 03:34:09;;;;;;;3.80;3.40;;;;;;;8.00;83.94;101046.54;104969;1257;139305;-65
2023/12/19 03:36:36;;;;;;;5.60;3.40;;;;;;;7.98;83.93;101037.03;105146;1259;61106;-65
2023/12/19 03:39:03;;;;;;;5.10;3.90;;;;;;;7.97;84.07;101043.30;104800;1255;138439;-66
2023/12/19 03:41:30;;;;;;;3.70;3.30;;;;;;;7.97;84.07;101037.56;104823;1257;66111;-65
2023/12/19 03:43:57;;;;;;;4.30;3.70;;;;;;;7.97;84.06;101035.96;104801;1261;73466;-64
2023/12/19 03:46:24;;;;;;;4.20;3.80;;;;;;;7.98;84.13;101034.41;104784;1261;138302;-65
2023/12/19 03:48:50;;;;;;;5.90;3.40;;;;;;;7.98;84.05;101036.71;104859;1256;61174;-66
2023/12/19 03:51:17;;;;;;;4.50;3.50;;;;;;;7.98;84.06;101035.97;104888;1256;138564;-66
2023/12/19 03:53:44;;;;;;;3.70;3.40;;;;;;;8.00;84.07;101029.94;105071;1259;66966;-65
2023/12/19 03:56:11;;;;;;;3.30;2.80;;;;;;;8.02;84.10;101021.10;108998;1256;73382;-65
2023/12/19 03:58:39;;;;;;;3.30;2.50;;;;;;;8.03;84.15;101023.63;108943;1258;138330;-65
2023/12/19 04:01:06;;;;;;;4.10;3.60;;;;;;;8.06;84.07;101021.10;107294;1257;61162;-64
2023/12/19 04:03:33;;;;;;;3.90;3.30;;;;;;;8.07;84.02;101025.85;104805;1258;138611;-65
2023/12/19 04:06:00;;;;;;;3.90;3.40;;;;;;;8.08;84.03;101023.29;104863;1256;66536;-65
2023/12/19 04:08:27;;;;;;;4.60;3.60;;;;;;;8.10;84.07;101034.73;104801;1257;73478;-64
2023/12/19 04:10:53;;;;;;;3.70;3.40;;;;;;;8.12;83.99;101036.71;104931;1260;138316;-66
2023/12/19 04:13:20;;;;;;;3.30;2.80;;;;;;;8.13;84.09;101039.04;105130;1262;61258;-66
2023/12/19 04:15:47;;;;;;;3.80;3.10;;;;;;;8.15;84.05;101039.14;104960;1259;138656;-66
2023/12/19 04:18:15;;;;;;;2.50;2.30;;;;;;;8.17;84.21;101050.74;104860;1256;66633;-68
2023/12/19 04:20:42;;;;;;;2.30;2.10;;;;;;;8.18;84.03;101047.79;104874;1259;72227;-66
2023/12/19 04:23:09;;;;;;;2.50;2.30;;;;;;;8.19;84.07;101040.32;104895;1258;138740;-66
2023/12/19 04:25:36;;;;;;;3.30;2.20;;;;;;;8.20;84.01;101035.80;109032;1254;59686;-65
2023/12/19 04:28:03;;;;;;;2.40;1.90;;;;;;;8.21;84.03;101042.84;108989;1255;139530;-66
2023/12/19 04:30:29;;;;;;;2.10;1.90;;;;;;;8.22;83.97;101035.52;106767;1256;65055;-66
2023/12/19 04:32:56;;;;;;;2.80;2.00;;;;;;;8.23;83.97;101032.60;104820;1256;73350;-66
2023/12/19 04:35:23;;;;;;;3.30;2.10;;;;;;;8.24;83.98;101032.48;104750;1256;138956;-66
2023/12/19 04:37:50;;;;;;;1.90;1.60;;;;;;;8.26;83.97;101027.98;104912;1256;61319;-67
2023/12/19 04:40:17;;;;;;;2.00;1.80;;;;;;;8.25;83.92;101037.77;108892;1257;139193;-65
2023/12/19 04:42:44;;;;;;;2.20;1.90;;;;;;;8.25;83.90;101028.14;109045;1256;67002;-66
2023/12/19 04:45:11;;;;;;;2.20;2.00;;;;;;;8.27;84.03;101023.13;108896;1256;138228;-65
2023/12/19 04:47:38;;;;;;;2.40;1.60;;;;;;;8.26;83.98;101018.73;109064;1255;58995;-66
2023/12/19 04:50:05;;;;;;;3.60;1.70;;;;;;;8.26;83.86;101016.30;109038;1256;60652;-66
2023/12/19 04:52:32;;;;;;;2.20;2.00;;;;;;;8.26;83.87;101010.86;108911;1258;138320;-66
2023/12/19 04:54:59;;;;;;;2.40;2.00;;;;;;;8.26;83.94;101010.34;109043;1256;65050;-66
2023/12/19 04:57:25;;;;;;;1.90;1.70;;;;;;;8.26;83.93;101004.73;105904;1256;138300;-67
2023/12/19 04:59:52;;;;;;;2.30;2.10;;;;;;;8.27;83.97;100991.86;104909;1256;61297;-66
2023/12/19 05:02:19;;;;;;;5.50;2.50;;;;;;;8.26;83.98;100991.08;104779;1256;61479;-67
2023/12/19 05:04:46;;;;;;;4.30;1.90;;;;;;;8.24;83.89;100999.60;104615;1256;139146;-66
2023/12/19 05:07:12;;;;;;;3.80;2.10;;;;;;;8.25;84.05;100999.62;104872;1260;66794;-70
2023/12/19 05:09:39;;;;;;;2.50;2.00;;;;;;;8.25;84.00;101000.84;104751;1260;138483;-70
2023/12/19 05:12:06;;;;;;;3.40;2.50;;;;;;;8.23;84.02;100992.40;105841;1259;61367;-69
2023/12/19 05:14:33;;;;;;;2.30;2.10;;;;;;;8.22;84.00;100991.33;104920;1256;61265;-67
2023/12/19 05:17:01;;;;;;;3.40;2.10;;;;;;;8.21;84.03;100986.55;104759;1256;138750;-69
2023/12/19 05:19:28;;;;;;;2.40;1.90;;;;;;;8.22;84.10;100983.78;104981;1256;65419;-66
2023/12/19 05:21:55;;;;;;;6.60;2.00;;;;;;;8.24;84.22;100969.87;104857;1259;138407;-67
2023/12/19 05:24:21;;;;;;;3.30;2.60;;;;;;;8.24;84.12;100975.13;105961;1256;59323;-67
2023/12/19 05:26:48;;;;;;;2.60;2.10;;;;;;;8.26;84.15;100982.21;104857;1255;61588;-69
2023/12/19 05:29:15;;;;;;;3.50;2.10;;;;;;;8.27;84.16;100995.00;105921;1257;138293;-67
2023/12/19 05:31:42;;;;;;;2.60;2.00;;;;;;;8.29;84.18;101008.35;104976;1260;66040;-68
2023/12/19 05:34:08;;;;;;;2.40;2.10;;;;;;;8.30;84.18;101005.25;104732;1260;138241;-65
2023/12/19 05:36:36;;;;;;;2.50;2.30;;;;;;;8.31;84.16;100999.51;104919;1259;61249;-66
2023/12/19 05:39:02;;;;;;;3.70;2.50;;;;;;;8.31;84.30;101010.00;104839;1261;139205;-64
2023/12/19 05:41:29;;;;;;;4.20;3.00;;;;;;;8.32;84.22;101007.23;104905;1261;75583;-65
2023/12/19 05:43:59;;;;;;;8.80;5.80;;;;;;;8.33;84.34;101011.67;104802;1256;66359;-64
2023/12/19 05:46:27;;;;;;;11.30;6.80;;;;;;;8.32;84.22;101002.02;108964;1256;138185;-65
2023/12/19 05:48:54;;;;;;;23.70;13.70;;;;;;;8.32;84.25;101002.88;109049;1256;60485;-66
2023/12/19 05:51:20;;;;;;;22.50;12.10;;;;;;;8.33;84.29;101006.77;108872;1256;138878;-68
2023/12/19 05:53:47;;;;;;;23.90;13.10;;;;;;;8.35;84.33;101012.27;109039;1255;75168;-65
2023/12/19 05:56:14;;;;;;;20.20;10.00;;;;;;;8.35;84.30;101010.19;105243;1256;67457;-64
2023/12/19 05:58:41;;;;;;;23.70;12.20;;;;;;;8.35;84.39;101016.63;104776;1260;138753;-65
2023/12/19 06:01:08;;;;;;;20.50;9.90;;;;;;;8.34;84.38;101010.84;109015;1256;60601;-67
2023/12/19 06:03:34;;;;;;;22.30;12.20;;;;;;;8.34;84.51;101013.83;108945;1255;139592;-67
2023/12/19 06:06:01;;;;;;;36.10;17.30;;;;;;;8.36;84.44;101026.11;109058;1258;73822;-66
2023/12/19 06:08:28;;;;;;;25.20;12.40;;;;;;;8.37;84.58;101029.15;105362;1256;66619;-67
2023/12/19 06:10:55;;;;;;;19.80;10.50;;;;;;;8.38;84.56;101029.86;104714;1260;138660;-65
2023/12/19 06:13:23;;;;;;;21.60;10.60;;;;;;;8.39;84.60;101029.71;104934;1260;59870;-63
2023/12/19 06:15:50;;;;;;;18.30;10.00;;;;;;;8.38;84.67;101027.42;104631;1261;138798;-66
2023/12/19 06:18:17;;;;;;;23.40;12.00;;;;;;;8.35;84.60;101024.52;104953;1262;75709;-65
2023/12/19 06:20:44;;;;;;;19.70;10.60;;;;;;;8.34;84.65;101021.32;104870;1256;67128;-66
2023/12/19 06:23:11;;;;;;;16.80;8.50;;;;;;;8.32;84.65;101022.47;104557;1259;138595;-65
2023/12/19 06:25:38;;;;;;;17.40;8.80;;;;;;;8.31;84.77;101030.66;104909;1261;61256;-65
2023/12/19 06:28:05;;;;;;;20.90;9.80;;;;;;;8.33;84.76;101031.97;107016;1259;138338;-66
2023/12/19 06:30:32;;;;;;;13.30;6.90;;;;;;;8.34;84.84;101026.92;108961;1260;75089;-68
2023/12/19 06:32:59;;;;;;;22.90;11.40;;;;;;;8.35;84.85;101023.29;107639;1256;66425;-68
2023/12/19 06:35:28;;;;;;;11.90;7.00;;;;;;;8.35;84.76;101011.21;106480;1256;139078;-68
2023/12/19 06:37:55;;;;;;;16.30;8.90;;;;;;;8.33;84.78;101018.16;105066;1258;61206;-69
2023/12/19 06:40:23;;;;;;;12.10;6.40;;;;;;;8.33;84.82;101012.04;106141;1259;138556;-68
2023/12/19 06:42:50;;;;;;;11.40;6.60;;;;;;;8.33;84.80;101015.52;108967;1256;75289;-68
2023/12/19 06:45:18;;;;;;;12.30;5.30;;;;;;;8.34;84.81;101001.37;105034;1259;138740;-69
2023/12/19 06:47:46;;;;;;;6.30;3.60;;;;;;;8.33;84.72;100979.49;105470;1260;72391;-67
2023/12/19 06:50:13;;;;;;;10.80;5.90;;;;;;;8.34;84.86;100980.95;108970;1256;59533;-67
2023/12/19 06:52:39;;;;;;;9.80;5.40;;;;;;;8.36;84.88;100991.15;106644;1260;139422;-69
2023/12/19 06:55:09;;;;;;;13.40;7.00;;;;;;;8.37;84.77;100996.09;104953;1259;74891;-69
2023/12/19 06:57:36;;;;;;;12.30;6.30;;;;;;;8.38;84.89;100991.23;108749;1260;138779;-70
2023/12/19 07:00:07;;;;;;;6.00;4.30;;;;;;;8.38;84.77;100985.47;105808;1257;73415;-68
2023/12/19 07:02:35;;;;;;;5.80;3.30;;;;;;;8.38;84.74;100967.96;109004;1256;59024;-68
2023/12/19 07:05:03;;;;;;;4.80;3.10;;;;;;;8.37;84.75;100958.65;108905;1259;138747;-68
2023/12/19 07:07:29;;;;;;;17.30;6.90;;;;;;;8.38;84.77;100967.80;107280;1257;75303;-67
2023/12/19 07:09:56;;;;;;;6.30;3.60;;;;;;;8.39;84.77;100970.11;104706;1262;139012;-68
2023/12/19 07:12:23;;;;;;;7.50;3.70;;;;;;;8.40;84.75;100981.66;104784;1259;73818;-68
2023/12/19 07:14:50;;;;;;;7.30;4.10;;;;;;;8.41;84.88;100980.27;104888;1257;61363;-68
2023/12/19 07:17:17;;;;;;;10.80;5.40;;;;;;;8.42;84.91;100970.23;105788;1256;138107;-69
2023/12/19 07:19:44;;;;;;;6.90;4.30;;;;;;;8.42;84.88;100963.05;105007;1257;75373;-68
2023/12/19 07:22:10;;;;;;;5.40;3.40;;;;;;;8.43;84.95;100971.30;104714;1261;138293;-68
2023/12/19 07:24:37;;;;;;;7.20;3.60;;;;;;;8.44;84.97;100963.82;104801;1259;73326;-68
2023/12/19 07:27:04;;;;;;;9.00;4.20;;;;;;;8.45;84.87;100963.71;104708;1257;138936;-68
2023/12/19 07:29:31;;;;;;;7.50;3.80;;;;;;;8.44;84.83;100965.08;105433;1262;61247;-69
2023/12/19 07:31:58;;;;;;;7.30;3.80;;;;;;;8.44;84.96;100961.73;108954;1259;75787;-68
2023/12/19 07:34:25;;;;;;;6.80;3.90;;;;;;;8.44;85.02;100968.75;108901;1256;138638;-68
2023/12/19 07:36:51;;;;;;;5.50;3.60;;;;;;;8.47;85.03;100970.94;106626;1258;72856;-68
2023/12/19 07:39:18;;;;;;;11.80;5.20;;;;;;;8.49;85.06;100966.65;104751;1262;138588;-65
2023/12/19 07:41:45;;;;;;;7.90;3.70;;;;;;;8.52;85.04;100968.84;104821;1260;61301;-65
2023/12/19 07:44:14;;;;;;;6.00;3.60;;;;;;;8.56;85.13;100979.67;104762;1261;75198;-67
2023/12/19 07:46:41;;;;;;;9.20;5.30;;;;;;;8.59;85.05;100982.77;108848;1256;138805;-67
2023/12/19 07:49:09;;;;;;;13.10;5.70;;;;;;;8.63;84.99;100983.40;108955;1260;72422;-67
2023/12/19 07:51:36;;;;;;;9.70;4.80;;;;;;;8.65;85.01;100978.61;108867;1259;139239;-66
2023/12/19 07:54:03;;;;;;;7.30;4.30;;;;;;;8.68;84.90;100969.80;109019;1261;59079;-66
2023/12/19 07:56:30;;;;;;;10.60;4.90;;;;;;;8.71;84.93;100974.46;109003;1257;74674;-66
2023/12/19 07:58:57;;;;;;;11.10;4.20;;;;;;;8.76;84.97;100966.23;108894;1255;138891;-66
2023/12/19 08:01:25;;;;;;;14.10;5.40;;;;;;;8.79;84.85;100973.83;108994;1256;73819;-66
2023/12/19 08:03:52;;;;;;;7.20;3.90;;;;;;;8.81;84.85;100974.45;108427;1257;138383;-66
2023/12/19 08:06:19;;;;;;;10.30;4.70;;;;;;;8.85;84.80;100978.27;104820;1257;61632;-66
2023/12/19 08:08:49;;;;;;;11.30;5.30;;;;;;;8.91;84.90;100978.47;104829;1256;75899;-66
2023/12/19 08:11:16;;;;;;;11.40;5.50;;;;;;;8.96;84.78;100982.52;104695;1260;138396;-67
2023/12/19 08:13:43;;;;;;;14.00;6.10;;;;;;;8.99;84.68;100981.90;104873;1261;73239;-67
2023/12/19 08:16:10;;;;;;;27.10;11.10;;;;;;;9.05;84.80;100983.19;104697;1260;138638;-65
2023/12/19 08:18:37;;;;;;;32.90;13.60;;;;;;;9.11;84.76;100983.38;104913;1260;61237;-67
2023/12/19 08:21:04;;;;;;;14.40;7.30;;;;;;;9.15;84.79;100982.12;104805;1260;139003;-66
2023/12/19 08:23:31;;;;;;;34.90;17.10;;;;;;;9.19;84.53;100967.20;108934;1258;66884;-67
2023/12/19 08:25:58;;;;;;;27.40;12.30;;;;;;;9.21;84.68;100965.52;108948;1258;72165;-67
2023/12/19 08:28:24;;;;;;;26.00;10.90;;;;;;;9.24;84.48;100967.36;108748;1260;139082;-66
2023/12/19 08:30:51;;;;;;;19.30;8.60;;;;;;;9.26;84.39;100965.16;104831;1257;61283;-66
2023/12/19 08:33:18;;;;;;;27.60;12.20;;;;;;;9.29;84.34;100958.77;104708;1260;139377;-66
2023/12/19 08:35:45;;;;;;;22.10;9.80;;;;;;;9.33;84.36;100954.17;105050;1260;67345;-66
2023/12/19 08:38:11;;;;;;;25.20;12.40;;;;;;;9.36;84.24;100949.18;104866;1262;72260;-66
2023/12/19 08:40:38;;;;;;;11.30;6.80;;;;;;;9.38;84.23;100950.29;105061;1260;138708;-64
2023/12/19 08:43:05;;;;;;;10.80;5.60;;;;;;;9.40;84.22;100941.09;105486;1257;61346;-65
2023/12/19 08:45:32;;;;;;;8.30;4.70;;;;;;;9.42;84.23;100946.95;108881;1255;138996;-66
2023/12/19 08:47:59;;;;;;;9.10;5.80;;;;;;;9.44;84.11;100946.14;104860;1261;67338;-66
2023/12/19 08:50:26;;;;;;;8.30;5.10;;;;;;;9.47;84.13;100960.61;105951;1256;74286;-65
2023/12/19 08:52:53;;;;;;;7.50;3.90;;;;;;;9.50;84.22;100957.56;104828;1260;138254;-64
2023/12/19 08:55:20;;;;;;;5.10;3.00;;;;;;;9.55;84.14;100956.13;104949;1262;60562;-65
2023/12/19 08:57:47;;;;;;;4.10;2.70;;;;;;;9.57;84.05;100948.83;107150;1257;138901;-65
2023/12/19 09:00:19;;;;;;;4.70;3.10;;;;;;;9.60;84.03;100942.09;104791;1264;67103;-69
2023/12/19 09:02:47;;;;;;;4.40;3.20;;;;;;;9.64;84.09;100941.70;106900;1257;72814;-72
2023/12/19 09:05:17;;;;;;;6.20;3.30;;;;;;;9.68;84.02;100942.34;105763;1260;138265;-66
2023/12/19 09:07:48;;;;;;;3.00;2.30;;;;;;;9.71;83.90;100935.77;109051;1257;59097;-64
2023/12/19 09:10:15;;;;;;;3.30;2.90;;;;;;;9.70;83.74;100937.34;108847;1255;139266;-65
2023/12/19 09:12:42;;;;;;;3.80;2.50;;;;;;;9.71;83.73;100935.10;109043;1257;66608;-65
2023/12/19 09:15:10;;;;;;;3.40;2.50;;;;;;;9.75;83.69;100937.45;108803;1255;139504;-66
2023/12/19 09:17:37;;;;;;;4.60;2.40;;;;;;;9.78;83.70;100945.63;108915;1255;60361;-65
2023/12/19 09:20:05;;;;;;;3.10;2.20;;;;;;;9.82;83.72;100958.22;108954;1258;60538;-65
2023/12/19 09:22:32;;;;;;;4.00;2.40;;;;;;;9.87;83.63;100950.30;108897;1255;138250;-65
2023/12/19 09:24:59;;;;;;;3.90;2.40;;;;;;;9.92;83.55;100950.61;108888;1257;65208;-65
2023/12/19 09:27:26;;;;;;;2.40;2.10;;;;;;;9.96;83.46;100956.90;108889;1257;138497;-65
2023/12/19 09:29:53;;;;;;;3.30;2.80;;;;;;;10.00;83.38;100961.93;108941;1256;59251;-65
2023/12/19 09:32:21;;;;;;;2.50;2.30;;;;;;;10.03;83.31;100965.52;107947;1259;61429;-68
2023/12/19 09:34:49;;;;;;;4.20;2.90;;;;;;;10.05;83.16;100965.58;104901;1259;138428;-68
2023/12/19 09:37:16;;;;;;;4.20;2.80;;;;;;;10.05;83.15;100971.19;104919;1260;66394;-69
2023/12/19 09:39:46;;;;;;;4.70;3.00;;;;;;;10.05;83.03;100964.70;104897;1260;139120;-68
2023/12/19 09:42:17;;;;;;;5.80;3.50;;;;;;;10.02;82.90;100954.60;104932;1257;61335;-70
2023/12/19 09:44:51;;;;;;;4.10;2.90;;;;;;;10.00;82.96;100960.67;105625;1260;61266;-69
2023/12/19 09:47:24;;;;;;;;;;;;;;;9.98;82.92;100946.78;106796;1260;137592;-69
2023/12/19 09:50:00;;;;;;;12.50;5.90;;;;;;;9.96;82.89;100954.77;105077;1261;67321;-69
2023/12/19 09:52:28;;;;;;;7.40;3.90;;;;;;;9.96;83.12;100958.83;106358;1257;137659;-69
2023/12/19 09:54:55;;;;;;;6.80;4.30;;;;;;;9.98;83.02;100954.48;104840;1259;61363;-69
2023/12/19 09:57:23;;;;;;;7.80;3.80;;;;;;;9.97;83.04;100943.05;104561;1262;138618;-69
2023/12/19 09:59:50;;;;;;;10.30;5.10;;;;;;;9.93;83.15;100930.86;104929;1261;75575;-69
2023/12/19 10:02:19;;;;;;;6.70;4.10;;;;;;;9.94;83.18;100928.06;104851;1257;67688;-69
2023/12/19 10:04:47;;;;;;;62.10;25.70;;;;;;;9.92;83.22;100922.41;105157;1260;139671;-70
2023/12/19 10:07:14;;;;;;;106.10;44.00;;;;;;;9.95;83.16;100922.65;104835;1258;61431;-69
2023/12/19 10:09:56;;;;;;;50.90;22.10;;;;;;;9.99;83.34;100908.59;105605;1255;139498;-69
2023/12/19 10:12:27;;;;;;;61.90;27.60;;;;;;;10.06;83.42;100901.77;106933;1257;74643;-65
2023/12/19 10:15:10;;;;;;;67.60;30.70;;;;;;;10.11;83.36;100897.73;109025;1255;64495;-65
2023/12/19 10:17:37;;;;;;;36.20;18.30;;;;;;;10.17;83.32;100892.64;105921;1254;73390;-69
2023/12/19 10:20:11;;;;;;;40.80;18.60;;;;;;;10.21;83.14;100874.50;104924;1260;61200;-69
2023/12/19 10:22:38;;;;;;;22.50;10.70;;;;;;;10.21;83.05;100866.61;104836;1269;138882;-68
2023/12/19 10:25:05;;;;;;;13.40;6.60;;;;;;;10.21;83.04;100860.48;106103;1256;75531;-69
2023/12/19 10:27:32;;;;;;;22.30;10.70;;;;;;;10.20;82.87;100875.36;106544;1256;139876;-68
2023/12/19 10:30:18;;;;;;;16.60;8.80;;;;;;;10.19;82.82;100876.39;104830;1258;73109;-69
2023/12/19 10:32:46;;;;;;;25.10;13.60;;;;;;;10.16;82.85;100877.52;106526;1257;61288;-69
2023/12/19 10:35:13;;;;;;;34.70;18.50;;;;;;;10.16;82.86;100862.27;104827;1258;138779;-68
2023/12/19 10:37:42;;;;;;;38.10;20.70;;;;;;;10.16;82.85;100862.09;108415;1255;78917;-68
2023/12/19 10:40:09;;;;;;;43.70;23.90;;;;;;;10.15;82.81;100854.70;104701;1257;300859;-69
2023/12/19 10:42:37;;;;;;;57.50;29.60;;;;;;;10.15;82.94;100854.16;109013;1257;73686;-69
2023/12/19 10:45:05;;;;;;;110.20;60.50;;;;;;;10.15;82.82;100848.38;107832;1254;61349;-70
2023/12/19 10:47:32;;;;;;;20.60;16.00;;;;;;;10.17;82.87;100855.98;105189;1260;138621;-68
2023/12/19 10:49:58;;;;;;;18.90;16.90;;;;;;;10.19;82.86;100863.58;109037;1257;75426;-69
2023/12/19 10:52:26;;;;;;;13.90;9.70;;;;;;;10.22;82.81;100875.94;108920;1257;138753;-69
2023/12/19 10:55:04;;;;;;;20.20;9.00;;;;;;;10.23;82.67;100873.71;108653;1257;73530;-65
2023/12/19 10:57:32;;;;;;;12.00;6.60;;;;;;;10.25;82.51;100873.75;108842;1256;139488;-65
2023/12/19 11:00:11;;;;;;;5.40;4.80;;;;;;;10.25;82.45;100869.91;105692;1257;61220;-65
2023/12/19 11:02:48;;;;;;;4.70;3.70;;;;;;;10.24;82.47;100859.85;108888;1256;74695;-64
2023/12/19 11:05:28;;;;;;;4.30;3.80;;;;;;;10.23;82.46;100848.62;108854;1257;138144;-65
2023/12/19 11:07:57;;;;;;;4.60;4.10;;;;;;;10.25;82.45;100844.80;109004;1257;72813;-65
2023/12/19 11:10:24;;;;;;;4.50;4.00;;;;;;;10.27;82.41;100832.23;108846;1256;139054;-65
2023/12/19 11:12:53;;;;;;;4.00;2.90;;;;;;;10.33;82.51;100817.34;107793;1257;60121;-65
2023/12/19 11:15:20;;;;;;;4.00;3.60;;;;;;;10.39;82.38;100819.43;104571;1258;138713;-66
2023/12/19 11:17:57;;;;;;;3.40;2.90;;;;;;;10.41;82.24;100821.07;104972;1258;66201;-67